sensor_id;sensor_type;location;lat;lon;timestamp;P1;durP1;ratioP1;P2;durP2;ratioP2
56997;SDS011;42890;44.244;22.530;2023-01-15T00:01:00;56.92;;;51.08;;
56997;SDS011;42890;44.244;22.530;2023-01-15T00:03:27;60.90;;;50.35;;
56997;SDS011;42890;44.244;22.530;2023-01-15T00:05:53;62.90;;;54.35;;
56997;SDS011;42890;44.244;22.530;2023-01-15T00:08:19;54.53;;;48.85;;
56997;SDS011;42890;44.244;22.530;2023-01-15T00:10:46;55.90;;;50.05;;
56997;SDS011;42890;44.244;22.530;2023-01-15T00:13:12;54.25;;;48.35;;
56997;SDS011;42890;44.244;22.530;2023-01-15T00:15:38;57.20;;;49.42;;
56997;SDS011;42890;44.244;22.530;2023-01-15T00:18:04;55.00;;;49.17;;
56997;SDS011;42890;44.244;22.530;2023-01-15T00:20:30;64.20;;;48.75;;
56997;SDS011;42890;44.244;22.530;2023-01-15T00:22:56;56.78;;;50.55;;
56997;SDS011;42890;44.244;22.530;2023-01-15T00:25:22;55.45;;;49.35;;
56997;SDS011;42890;44.244;22.530;2023-01-15T00:28:07;177.57;;;91.72;;
56997;SDS011;42890;44.244;22.530;2023-01-15T00:30:33;155.15;;;88.07;;
56997;SDS011;42890;44.244;22.530;2023-01-15T00:33:00;362.73;;;194.02;;
56997;SDS011;42890;44.244;22.530;2023-01-15T00:35:26;235.75;;;122.88;;
56997;SDS011;42890;44.244;22.530;2023-01-15T00:37:52;224.35;;;121.40;;
56997;SDS011;42890;44.244;22.530;2023-01-15T00:40:18;200.85;;;111.80;;
56997;SDS011;42890;44.244;22.530;2023-01-15T00:42:45;165.25;;;93.90;;
56997;SDS011;42890;44.244;22.530;2023-01-15T00:45:11;102.15;;;73.07;;
56997;SDS011;42890;44.244;22.530;2023-01-15T00:47:41;108.30;;;74.93;;
56997;SDS011;42890;44.244;22.530;2023-01-15T00:50:09;106.20;;;74.70;;
56997;SDS011;42890;44.244;22.530;2023-01-15T00:52:35;146.55;;;95.20;;
56997;SDS011;42890;44.244;22.530;2023-01-15T00:55:01;135.77;;;88.47;;
56997;SDS011;42890;44.244;22.530;2023-01-15T00:57:28;144.60;;;93.07;;
56997;SDS011;42890;44.244;22.530;2023-01-15T00:59:54;150.93;;;97.00;;
56997;SDS011;42890;44.244;22.530;2023-01-15T01:02:20;158.85;;;100.32;;
56997;SDS011;42890;44.244;22.530;2023-01-15T01:04:46;253.43;;;147.70;;
56997;SDS011;42890;44.244;22.530;2023-01-15T01:07:12;182.90;;;114.93;;
56997;SDS011;42890;44.244;22.530;2023-01-15T01:09:38;164.75;;;105.72;;
56997;SDS011;42890;44.244;22.530;2023-01-15T01:12:04;169.45;;;102.93;;
56997;SDS011;42890;44.244;22.530;2023-01-15T01:14:31;154.80;;;102.75;;
56997;SDS011;42890;44.244;22.530;2023-01-15T01:16:57;141.30;;;91.47;;
56997;SDS011;42890;44.244;22.530;2023-01-15T01:19:24;139.75;;;88.95;;
56997;SDS011;42890;44.244;22.530;2023-01-15T01:21:50;137.95;;;88.75;;
56997;SDS011;42890;44.244;22.530;2023-01-15T01:24:18;179.20;;;109.95;;
56997;SDS011;42890;44.244;22.530;2023-01-15T01:26:44;200.52;;;121.50;;
56997;SDS011;42890;44.244;22.530;2023-01-15T01:29:11;189.45;;;118.32;;
56997;SDS011;42890;44.244;22.530;2023-01-15T01:31:38;138.02;;;92.20;;
56997;SDS011;42890;44.244;22.530;2023-01-15T01:34:04;161.07;;;99.53;;
56997;SDS011;42890;44.244;22.530;2023-01-15T01:36:31;180.18;;;108.13;;
56997;SDS011;42890;44.244;22.530;2023-01-15T01:38:58;168.40;;;100.82;;
56997;SDS011;42890;44.244;22.530;2023-01-15T01:41:24;185.27;;;112.82;;
56997;SDS011;42890;44.244;22.530;2023-01-15T01:46:20;172.77;;;108.13;;
56997;SDS011;42890;44.244;22.530;2023-01-15T01:48:46;123.25;;;83.25;;
56997;SDS011;42890;44.244;22.530;2023-01-15T01:51:13;82.55;;;66.72;;
56997;SDS011;42890;44.244;22.530;2023-01-15T01:53:39;106.07;;;75.90;;
56997;SDS011;42890;44.244;22.530;2023-01-15T01:56:08;92.78;;;74.90;;
56997;SDS011;42890;44.244;22.530;2023-01-15T01:58:35;101.30;;;77.10;;
56997;SDS011;42890;44.244;22.530;2023-01-15T02:01:02;99.40;;;74.97;;
56997;SDS011;42890;44.244;22.530;2023-01-15T02:03:31;97.30;;;72.20;;
56997;SDS011;42890;44.244;22.530;2023-01-15T02:05:57;85.82;;;70.35;;
56997;SDS011;42890;44.244;22.530;2023-01-15T02:08:24;81.10;;;70.22;;
56997;SDS011;42890;44.244;22.530;2023-01-15T02:10:54;81.53;;;67.68;;
56997;SDS011;42890;44.244;22.530;2023-01-15T02:21:25;131.07;;;82.97;;
56997;SDS011;42890;44.244;22.530;2023-01-15T02:24:06;135.20;;;85.13;;
56997;SDS011;42890;44.244;22.530;2023-01-15T02:29:02;111.85;;;79.32;;
56997;SDS011;42890;44.244;22.530;2023-01-15T02:31:33;104.28;;;77.90;;
56997;SDS011;42890;44.244;22.530;2023-01-15T02:34:15;114.30;;;78.57;;
56997;SDS011;42890;44.244;22.530;2023-01-15T02:36:43;176.95;;;109.03;;
56997;SDS011;42890;44.244;22.530;2023-01-15T02:39:11;184.88;;;111.97;;
56997;SDS011;42890;44.244;22.530;2023-01-15T02:41:40;169.77;;;101.28;;
56997;SDS011;42890;44.244;22.530;2023-01-15T02:44:08;129.90;;;91.18;;
56997;SDS011;42890;44.244;22.530;2023-01-15T02:46:35;176.73;;;102.68;;
56997;SDS011;42890;44.244;22.530;2023-01-15T02:49:03;151.65;;;97.68;;
56997;SDS011;42890;44.244;22.530;2023-01-15T02:51:34;121.95;;;80.90;;
56997;SDS011;42890;44.244;22.530;2023-01-15T02:54:02;116.85;;;81.57;;
56997;SDS011;42890;44.244;22.530;2023-01-15T02:56:29;286.98;;;147.43;;
56997;SDS011;42890;44.244;22.530;2023-01-15T02:58:56;217.23;;;124.60;;
56997;SDS011;42890;44.244;22.530;2023-01-15T03:01:25;183.00;;;111.35;;
56997;SDS011;42890;44.244;22.530;2023-01-15T03:04:00;145.13;;;92.70;;
56997;SDS011;42890;44.244;22.530;2023-01-15T03:09:05;218.25;;;123.13;;
56997;SDS011;42890;44.244;22.530;2023-01-15T03:11:33;86.57;;;70.57;;
56997;SDS011;42890;44.244;22.530;2023-01-15T03:14:06;77.82;;;63.53;;
56997;SDS011;42890;44.244;22.530;2023-01-15T03:16:34;122.78;;;77.32;;
56997;SDS011;42890;44.244;22.530;2023-01-15T03:21:33;71.03;;;62.85;;
56997;SDS011;42890;44.244;22.530;2023-01-15T03:24:03;60.35;;;52.53;;
56997;SDS011;42890;44.244;22.530;2023-01-15T03:26:30;81.05;;;61.38;;
56997;SDS011;42890;44.244;22.530;2023-01-15T03:28:56;195.60;;;122.03;;
56997;SDS011;42890;44.244;22.530;2023-01-15T03:31:22;166.90;;;95.25;;
56997;SDS011;42890;44.244;22.530;2023-01-15T03:33:48;70.95;;;59.00;;
56997;SDS011;42890;44.244;22.530;2023-01-15T03:36:14;62.08;;;54.00;;
56997;SDS011;42890;44.244;22.530;2023-01-15T03:38:40;63.05;;;52.45;;
56997;SDS011;42890;44.244;22.530;2023-01-15T03:46:32;66.13;;;57.88;;
56997;SDS011;42890;44.244;22.530;2023-01-15T03:49:02;60.35;;;53.17;;
56997;SDS011;42890;44.244;22.530;2023-01-15T03:51:34;64.60;;;56.70;;
56997;SDS011;42890;44.244;22.530;2023-01-15T03:54:04;64.70;;;57.78;;
56997;SDS011;42890;44.244;22.530;2023-01-15T03:56:53;63.45;;;56.17;;
56997;SDS011;42890;44.244;22.530;2023-01-15T03:59:26;86.47;;;68.28;;
56997;SDS011;42890;44.244;22.530;2023-01-15T04:01:54;134.88;;;82.72;;
56997;SDS011;42890;44.244;22.530;2023-01-15T04:04:20;156.50;;;98.55;;
56997;SDS011;42890;44.244;22.530;2023-01-15T04:06:46;160.05;;;98.15;;
56997;SDS011;42890;44.244;22.530;2023-01-15T04:09:12;132.18;;;84.45;;
56997;SDS011;42890;44.244;22.530;2023-01-15T04:11:39;100.22;;;73.47;;
56997;SDS011;42890;44.244;22.530;2023-01-15T04:14:05;66.35;;;57.45;;
56997;SDS011;42890;44.244;22.530;2023-01-15T04:16:31;62.53;;;51.92;;
56997;SDS011;42890;44.244;22.530;2023-01-15T04:18:58;62.53;;;53.22;;
56997;SDS011;42890;44.244;22.530;2023-01-15T04:21:25;60.47;;;53.72;;
56997;SDS011;42890;44.244;22.530;2023-01-15T04:23:51;61.45;;;54.72;;
56997;SDS011;42890;44.244;22.530;2023-01-15T04:26:17;59.58;;;52.85;;
56997;SDS011;42890;44.244;22.530;2023-01-15T04:28:43;65.57;;;58.15;;
56997;SDS011;42890;44.244;22.530;2023-01-15T04:31:10;89.57;;;72.22;;
56997;SDS011;42890;44.244;22.530;2023-01-15T04:33:36;64.30;;;55.58;;
56997;SDS011;42890;44.244;22.530;2023-01-15T04:36:04;61.95;;;55.42;;
56997;SDS011;42890;44.244;22.530;2023-01-15T04:38:30;67.20;;;57.45;;
56997;SDS011;42890;44.244;22.530;2023-01-15T04:41:03;71.18;;;63.50;;
56997;SDS011;42890;44.244;22.530;2023-01-15T04:43:48;86.35;;;68.32;;
56997;SDS011;42890;44.244;22.530;2023-01-15T04:46:39;86.20;;;69.43;;
56997;SDS011;42890;44.244;22.530;2023-01-15T04:49:07;126.35;;;83.35;;
56997;SDS011;42890;44.244;22.530;2023-01-15T04:51:34;133.77;;;87.63;;
56997;SDS011;42890;44.244;22.530;2023-01-15T04:54:02;142.65;;;92.72;;
56997;SDS011;42890;44.244;22.530;2023-01-15T04:56:29;121.35;;;85.47;;
56997;SDS011;42890;44.244;22.530;2023-01-15T04:58:58;132.00;;;88.72;;
56997;SDS011;42890;44.244;22.530;2023-01-15T05:01:25;130.20;;;89.47;;
56997;SDS011;42890;44.244;22.530;2023-01-15T05:03:51;147.60;;;94.15;;
56997;SDS011;42890;44.244;22.530;2023-01-15T05:06:17;163.70;;;105.72;;
56997;SDS011;42890;44.244;22.530;2023-01-15T05:08:44;198.93;;;121.38;;
56997;SDS011;42890;44.244;22.530;2023-01-15T05:11:10;172.13;;;111.20;;
56997;SDS011;42890;44.244;22.530;2023-01-15T05:13:36;174.18;;;107.25;;
56997;SDS011;42890;44.244;22.530;2023-01-15T05:16:09;164.15;;;102.82;;
56997;SDS011;42890;44.244;22.530;2023-01-15T05:18:36;154.32;;;100.13;;
56997;SDS011;42890;44.244;22.530;2023-01-15T05:21:02;154.32;;;98.53;;
56997;SDS011;42890;44.244;22.530;2023-01-15T05:23:28;149.15;;;98.97;;
56997;SDS011;42890;44.244;22.530;2023-01-15T05:25:54;158.48;;;102.35;;
56997;SDS011;42890;44.244;22.530;2023-01-15T05:28:20;149.95;;;97.38;;
56997;SDS011;42890;44.244;22.530;2023-01-15T05:30:47;155.95;;;99.70;;
56997;SDS011;42890;44.244;22.530;2023-01-15T05:33:13;155.10;;;100.55;;
56997;SDS011;42890;44.244;22.530;2023-01-15T05:35:39;190.18;;;114.68;;
56997;SDS011;42890;44.244;22.530;2023-01-15T05:38:05;171.32;;;112.65;;
56997;SDS011;42890;44.244;22.530;2023-01-15T05:40:31;175.13;;;110.00;;
56997;SDS011;42890;44.244;22.530;2023-01-15T05:42:57;139.60;;;94.45;;
56997;SDS011;42890;44.244;22.530;2023-01-15T05:45:23;164.10;;;105.00;;
56997;SDS011;42890;44.244;22.530;2023-01-15T05:47:51;164.63;;;104.57;;
56997;SDS011;42890;44.244;22.530;2023-01-15T05:50:17;148.70;;;90.75;;
56997;SDS011;42890;44.244;22.530;2023-01-15T05:52:43;151.02;;;88.30;;
56997;SDS011;42890;44.244;22.530;2023-01-15T05:55:09;156.98;;;91.18;;
56997;SDS011;42890;44.244;22.530;2023-01-15T05:57:35;169.02;;;101.32;;
56997;SDS011;42890;44.244;22.530;2023-01-15T06:00:03;175.60;;;103.05;;
56997;SDS011;42890;44.244;22.530;2023-01-15T06:02:29;189.25;;;103.70;;
56997;SDS011;42890;44.244;22.530;2023-01-15T06:04:56;179.05;;;103.28;;
56997;SDS011;42890;44.244;22.530;2023-01-15T06:07:22;162.40;;;94.63;;
56997;SDS011;42890;44.244;22.530;2023-01-15T06:09:48;178.63;;;104.72;;
56997;SDS011;42890;44.244;22.530;2023-01-15T06:12:14;165.90;;;99.20;;
56997;SDS011;42890;44.244;22.530;2023-01-15T06:14:40;172.52;;;98.28;;
56997;SDS011;42890;44.244;22.530;2023-01-15T06:17:06;207.20;;;123.13;;
56997;SDS011;42890;44.244;22.530;2023-01-15T06:19:32;205.73;;;115.50;;
56997;SDS011;42890;44.244;22.530;2023-01-15T06:21:58;191.70;;;103.65;;
56997;SDS011;42890;44.244;22.530;2023-01-15T06:24:24;197.75;;;111.35;;
56997;SDS011;42890;44.244;22.530;2023-01-15T06:26:50;187.38;;;103.25;;
56997;SDS011;42890;44.244;22.530;2023-01-15T06:29:16;184.13;;;101.60;;
56997;SDS011;42890;44.244;22.530;2023-01-15T06:31:44;189.80;;;99.45;;
56997;SDS011;42890;44.244;22.530;2023-01-15T06:34:11;190.10;;;112.18;;
56997;SDS011;42890;44.244;22.530;2023-01-15T06:36:37;181.88;;;107.25;;
56997;SDS011;42890;44.244;22.530;2023-01-15T06:39:03;187.82;;;108.18;;
56997;SDS011;42890;44.244;22.530;2023-01-15T06:41:29;197.95;;;108.65;;
56997;SDS011;42890;44.244;22.530;2023-01-15T06:44:17;217.77;;;118.35;;
56997;SDS011;42890;44.244;22.530;2023-01-15T06:47:04;211.63;;;111.72;;
56997;SDS011;42890;44.244;22.530;2023-01-15T06:49:49;207.57;;;115.43;;
56997;SDS011;42890;44.244;22.530;2023-01-15T06:52:15;201.02;;;106.40;;
56997;SDS011;42890;44.244;22.530;2023-01-15T06:54:41;241.93;;;124.72;;
56997;SDS011;42890;44.244;22.530;2023-01-15T06:57:07;181.30;;;98.80;;
56997;SDS011;42890;44.244;22.530;2023-01-15T06:59:33;165.70;;;93.28;;
56997;SDS011;42890;44.244;22.530;2023-01-15T07:02:00;130.60;;;82.25;;
56997;SDS011;42890;44.244;22.530;2023-01-15T07:04:26;130.82;;;78.95;;
56997;SDS011;42890;44.244;22.530;2023-01-15T07:06:52;133.23;;;80.03;;
56997;SDS011;42890;44.244;22.530;2023-01-15T07:09:18;141.07;;;81.35;;
56997;SDS011;42890;44.244;22.530;2023-01-15T07:11:44;142.48;;;81.43;;
56997;SDS011;42890;44.244;22.530;2023-01-15T07:14:14;130.30;;;78.10;;
56997;SDS011;42890;44.244;22.530;2023-01-15T07:16:40;137.90;;;79.50;;
56997;SDS011;42890;44.244;22.530;2023-01-15T07:19:07;136.02;;;80.07;;
56997;SDS011;42890;44.244;22.530;2023-01-15T07:21:34;139.88;;;79.00;;
56997;SDS011;42890;44.244;22.530;2023-01-15T07:24:00;153.95;;;82.55;;
56997;SDS011;42890;44.244;22.530;2023-01-15T07:26:26;145.50;;;81.28;;
56997;SDS011;42890;44.244;22.530;2023-01-15T07:28:52;141.68;;;78.18;;
56997;SDS011;42890;44.244;22.530;2023-01-15T07:31:19;129.48;;;75.68;;
56997;SDS011;42890;44.244;22.530;2023-01-15T07:33:45;124.43;;;74.60;;
56997;SDS011;42890;44.244;22.530;2023-01-15T07:36:11;128.65;;;75.20;;
56997;SDS011;42890;44.244;22.530;2023-01-15T07:38:37;124.50;;;74.43;;
56997;SDS011;42890;44.244;22.530;2023-01-15T07:41:03;124.65;;;75.32;;
56997;SDS011;42890;44.244;22.530;2023-01-15T07:43:48;125.63;;;74.82;;
56997;SDS011;42890;44.244;22.530;2023-01-15T07:46:32;127.22;;;74.53;;
56997;SDS011;42890;44.244;22.530;2023-01-15T07:49:17;127.03;;;73.43;;
56997;SDS011;42890;44.244;22.530;2023-01-15T07:52:02;119.18;;;73.07;;
56997;SDS011;42890;44.244;22.530;2023-01-15T07:54:28;103.53;;;70.00;;
56997;SDS011;42890;44.244;22.530;2023-01-15T07:56:54;102.35;;;67.82;;
56997;SDS011;42890;44.244;22.530;2023-01-15T07:59:20;90.38;;;65.25;;
56997;SDS011;42890;44.244;22.530;2023-01-15T08:01:46;100.28;;;67.03;;
56997;SDS011;42890;44.244;22.530;2023-01-15T08:04:12;86.43;;;66.22;;
56997;SDS011;42890;44.244;22.530;2023-01-15T08:06:38;97.22;;;67.65;;
56997;SDS011;42890;44.244;22.530;2023-01-15T08:09:05;118.45;;;72.75;;
56997;SDS011;42890;44.244;22.530;2023-01-15T08:11:32;111.03;;;72.70;;
56997;SDS011;42890;44.244;22.530;2023-01-15T08:14:17;104.97;;;70.85;;
56997;SDS011;42890;44.244;22.530;2023-01-15T08:17:02;126.65;;;72.95;;
56997;SDS011;42890;44.244;22.530;2023-01-15T08:19:28;117.45;;;76.30;;
56997;SDS011;42890;44.244;22.530;2023-01-15T08:21:57;127.68;;;76.93;;
56997;SDS011;42890;44.244;22.530;2023-01-15T08:24:26;108.88;;;71.00;;
56997;SDS011;42890;44.244;22.530;2023-01-15T08:26:53;132.10;;;83.80;;
56997;SDS011;42890;44.244;22.530;2023-01-15T08:29:20;133.43;;;84.85;;
56997;SDS011;42890;44.244;22.530;2023-01-15T08:31:46;111.82;;;75.80;;
56997;SDS011;42890;44.244;22.530;2023-01-15T08:34:12;105.78;;;73.35;;
56997;SDS011;42890;44.244;22.530;2023-01-15T08:36:38;91.45;;;68.20;;
56997;SDS011;42890;44.244;22.530;2023-01-15T08:39:04;96.95;;;71.35;;
56997;SDS011;42890;44.244;22.530;2023-01-15T08:41:30;110.25;;;71.10;;
56997;SDS011;42890;44.244;22.530;2023-01-15T08:43:57;97.00;;;68.35;;
56997;SDS011;42890;44.244;22.530;2023-01-15T08:46:24;119.03;;;77.45;;
56997;SDS011;42890;44.244;22.530;2023-01-15T08:48:50;145.10;;;88.72;;
56997;SDS011;42890;44.244;22.530;2023-01-15T08:51:17;137.65;;;85.78;;
56997;SDS011;42890;44.244;22.530;2023-01-15T08:53:44;119.53;;;78.53;;
56997;SDS011;42890;44.244;22.530;2023-01-15T08:56:17;166.35;;;98.80;;
56997;SDS011;42890;44.244;22.530;2023-01-15T08:58:43;130.15;;;81.68;;
56997;SDS011;42890;44.244;22.530;2023-01-15T09:01:11;117.90;;;74.20;;
56997;SDS011;42890;44.244;22.530;2023-01-15T09:03:41;122.38;;;74.93;;
56997;SDS011;42890;44.244;22.530;2023-01-15T09:06:07;147.65;;;88.28;;
56997;SDS011;42890;44.244;22.530;2023-01-15T09:08:35;153.20;;;89.68;;
56997;SDS011;42890;44.244;22.530;2023-01-15T09:11:01;131.77;;;82.22;;
56997;SDS011;42890;44.244;22.530;2023-01-15T09:13:28;136.25;;;85.07;;
56997;SDS011;42890;44.244;22.530;2023-01-15T09:16:01;116.05;;;73.68;;
56997;SDS011;42890;44.244;22.530;2023-01-15T09:18:28;88.28;;;67.35;;
56997;SDS011;42890;44.244;22.530;2023-01-15T09:20:54;101.80;;;67.20;;
56997;SDS011;42890;44.244;22.530;2023-01-15T09:23:20;73.88;;;59.50;;
56997;SDS011;42890;44.244;22.530;2023-01-15T09:25:58;69.75;;;58.17;;
56997;SDS011;42890;44.244;22.530;2023-01-15T09:28:24;110.95;;;68.07;;
56997;SDS011;42890;44.244;22.530;2023-01-15T09:30:50;104.63;;;70.60;;
56997;SDS011;42890;44.244;22.530;2023-01-15T09:33:17;138.95;;;86.05;;
56997;SDS011;42890;44.244;22.530;2023-01-15T09:35:43;106.95;;;65.78;;
56997;SDS011;42890;44.244;22.530;2023-01-15T09:38:10;80.63;;;56.25;;
56997;SDS011;42890;44.244;22.530;2023-01-15T09:40:50;63.70;;;52.47;;
56997;SDS011;42890;44.244;22.530;2023-01-15T09:46:16;70.30;;;57.60;;
56997;SDS011;42890;44.244;22.530;2023-01-15T09:57:03;82.18;;;62.15;;
56997;SDS011;42890;44.244;22.530;2023-01-15T09:59:34;90.50;;;62.28;;
56997;SDS011;42890;44.244;22.530;2023-01-15T10:02:04;65.53;;;51.67;;
56997;SDS011;42890;44.244;22.530;2023-01-15T10:04:40;60.75;;;50.88;;
56997;SDS011;42890;44.244;22.530;2023-01-15T10:09:37;72.32;;;55.78;;
56997;SDS011;42890;44.244;22.530;2023-01-15T10:12:18;83.47;;;58.30;;
56997;SDS011;42890;44.244;22.530;2023-01-15T10:17:37;68.00;;;51.55;;
56997;SDS011;42890;44.244;22.530;2023-01-15T10:23:01;60.33;;;47.80;;
56997;SDS011;42890;44.244;22.530;2023-01-15T10:25:31;64.57;;;50.75;;
56997;SDS011;42890;44.244;22.530;2023-01-15T10:28:01;61.13;;;50.15;;
56997;SDS011;42890;44.244;22.530;2023-01-15T10:30:32;76.78;;;54.50;;
56997;SDS011;42890;44.244;22.530;2023-01-15T10:33:04;61.58;;;51.60;;
56997;SDS011;42890;44.244;22.530;2023-01-15T10:35:51;61.28;;;52.38;;
56997;SDS011;42890;44.244;22.530;2023-01-15T10:38:30;57.20;;;50.40;;
56997;SDS011;42890;44.244;22.530;2023-01-15T10:45:54;54.58;;;45.42;;
56997;SDS011;42890;44.244;22.530;2023-01-15T10:51:11;72.10;;;59.25;;
56997;SDS011;42890;44.244;22.530;2023-01-15T10:53:40;62.92;;;56.17;;
56997;SDS011;42890;44.244;22.530;2023-01-15T10:56:09;52.28;;;46.63;;
56997;SDS011;42890;44.244;22.530;2023-01-15T11:01:19;49.08;;;41.50;;
56997;SDS011;42890;44.244;22.530;2023-01-15T11:03:47;49.90;;;41.50;;
56997;SDS011;42890;44.244;22.530;2023-01-15T11:06:18;62.65;;;42.05;;
56997;SDS011;42890;44.244;22.530;2023-01-15T11:08:45;44.00;;;38.38;;
56997;SDS011;42890;44.244;22.530;2023-01-15T11:11:15;57.22;;;45.13;;
56997;SDS011;42890;44.244;22.530;2023-01-15T11:13:52;39.17;;;34.67;;
56997;SDS011;42890;44.244;22.530;2023-01-15T11:16:37;41.95;;;37.28;;
56997;SDS011;42890;44.244;22.530;2023-01-15T11:19:27;57.17;;;47.92;;
56997;SDS011;42890;44.244;22.530;2023-01-15T11:24:35;43.67;;;37.90;;
56997;SDS011;42890;44.244;22.530;2023-01-15T11:27:01;43.58;;;38.17;;
56997;SDS011;42890;44.244;22.530;2023-01-15T11:29:32;39.42;;;35.33;;
56997;SDS011;42890;44.244;22.530;2023-01-15T11:31:58;47.13;;;39.42;;
56997;SDS011;42890;44.244;22.530;2023-01-15T11:34:25;50.83;;;39.03;;
56997;SDS011;42890;44.244;22.530;2023-01-15T11:37:00;46.05;;;37.92;;
56997;SDS011;42890;44.244;22.530;2023-01-15T11:39:27;49.13;;;40.10;;
56997;SDS011;42890;44.244;22.530;2023-01-15T11:42:05;56.45;;;45.15;;
56997;SDS011;42890;44.244;22.530;2023-01-15T11:44:50;44.28;;;36.50;;
56997;SDS011;42890;44.244;22.530;2023-01-15T11:47:35;58.38;;;47.38;;
56997;SDS011;42890;44.244;22.530;2023-01-15T11:50:20;44.33;;;37.42;;
56997;SDS011;42890;44.244;22.530;2023-01-15T11:53:05;49.55;;;44.15;;
56997;SDS011;42890;44.244;22.530;2023-01-15T11:55:32;46.03;;;40.50;;
56997;SDS011;42890;44.244;22.530;2023-01-15T11:57:58;43.30;;;38.70;;
56997;SDS011;42890;44.244;22.530;2023-01-15T12:00:27;44.78;;;40.33;;
56997;SDS011;42890;44.244;22.530;2023-01-15T12:03:00;44.97;;;40.15;;
56997;SDS011;42890;44.244;22.530;2023-01-15T12:05:30;40.00;;;35.80;;
56997;SDS011;42890;44.244;22.530;2023-01-15T12:07:57;40.90;;;36.70;;
56997;SDS011;42890;44.244;22.530;2023-01-15T12:10:27;47.20;;;40.70;;
56997;SDS011;42890;44.244;22.530;2023-01-15T12:15:52;33.05;;;29.63;;
56997;SDS011;42890;44.244;22.530;2023-01-15T12:18:32;33.22;;;29.88;;
56997;SDS011;42890;44.244;22.530;2023-01-15T12:21:04;34.15;;;30.73;;
56997;SDS011;42890;44.244;22.530;2023-01-15T12:26:36;33.70;;;30.30;;
56997;SDS011;42890;44.244;22.530;2023-01-15T12:29:23;37.67;;;33.92;;
56997;SDS011;42890;44.244;22.530;2023-01-15T12:31:54;38.22;;;34.33;;
56997;SDS011;42890;44.244;22.530;2023-01-15T12:34:24;37.20;;;33.40;;
56997;SDS011;42890;44.244;22.530;2023-01-15T12:36:57;34.75;;;31.15;;
56997;SDS011;42890;44.244;22.530;2023-01-15T12:39:26;31.08;;;27.85;;
56997;SDS011;42890;44.244;22.530;2023-01-15T12:41:56;31.48;;;28.35;;
56997;SDS011;42890;44.244;22.530;2023-01-15T12:47:46;37.95;;;34.10;;
56997;SDS011;42890;44.244;22.530;2023-01-15T12:52:51;34.10;;;30.55;;
56997;SDS011;42890;44.244;22.530;2023-01-15T12:55:39;39.53;;;34.17;;
56997;SDS011;42890;44.244;22.530;2023-01-15T12:58:10;37.38;;;30.38;;
56997;SDS011;42890;44.244;22.530;2023-01-15T13:00:39;33.28;;;29.75;;
56997;SDS011;42890;44.244;22.530;2023-01-15T13:05:52;38.38;;;34.40;;
56997;SDS011;42890;44.244;22.530;2023-01-15T13:08:26;37.35;;;32.90;;
56997;SDS011;42890;44.244;22.530;2023-01-15T13:10:53;33.10;;;29.67;;
56997;SDS011;42890;44.244;22.530;2023-01-15T13:13:21;34.75;;;31.10;;
56997;SDS011;42890;44.244;22.530;2023-01-15T13:16:09;38.55;;;34.45;;
56997;SDS011;42890;44.244;22.530;2023-01-15T13:21:38;34.58;;;31.08;;
56997;SDS011;42890;44.244;22.530;2023-01-15T13:29:59;38.38;;;33.95;;
56997;SDS011;42890;44.244;22.530;2023-01-15T13:37:34;33.67;;;30.35;;
56997;SDS011;42890;44.244;22.530;2023-01-15T13:40:08;33.08;;;29.52;;
56997;SDS011;42890;44.244;22.530;2023-01-15T13:42:36;34.67;;;31.13;;
56997;SDS011;42890;44.244;22.530;2023-01-15T13:45:47;30.73;;;27.52;;
56997;SDS011;42890;44.244;22.530;2023-01-15T13:48:12;34.33;;;30.75;;
56997;SDS011;42890;44.244;22.530;2023-01-15T13:50:41;33.65;;;30.23;;
56997;SDS011;42890;44.244;22.530;2023-01-15T13:55:55;36.90;;;33.17;;
56997;SDS011;42890;44.244;22.530;2023-01-15T13:58:28;35.50;;;31.88;;
56997;SDS011;42890;44.244;22.530;2023-01-15T14:04:00;41.70;;;35.42;;
56997;SDS011;42890;44.244;22.530;2023-01-15T14:06:34;51.05;;;44.05;;
56997;SDS011;42890;44.244;22.530;2023-01-15T14:09:01;38.08;;;34.17;;
56997;SDS011;42890;44.244;22.530;2023-01-15T14:14:05;33.15;;;29.60;;
56997;SDS011;42890;44.244;22.530;2023-01-15T14:16:39;36.85;;;30.45;;
56997;SDS011;42890;44.244;22.530;2023-01-15T14:21:38;38.33;;;31.70;;
56997;SDS011;42890;44.244;22.530;2023-01-15T14:24:17;33.72;;;30.08;;
56997;SDS011;42890;44.244;22.530;2023-01-15T14:29:29;37.70;;;32.05;;
56997;SDS011;42890;44.244;22.530;2023-01-15T14:32:05;48.35;;;32.00;;
56997;SDS011;42890;44.244;22.530;2023-01-15T14:34:34;159.57;;;56.53;;
56997;SDS011;42890;44.244;22.530;2023-01-15T14:37:04;161.13;;;57.83;;
56997;SDS011;42890;44.244;22.530;2023-01-15T14:39:34;220.63;;;74.68;;
56997;SDS011;42890;44.244;22.530;2023-01-15T14:42:09;66.18;;;41.75;;
56997;SDS011;42890;44.244;22.530;2023-01-15T14:47:24;144.70;;;60.70;;
56997;SDS011;42890;44.244;22.530;2023-01-15T14:49:59;71.35;;;47.63;;
56997;SDS011;42890;44.244;22.530;2023-01-15T14:52:25;95.78;;;53.28;;
56997;SDS011;42890;44.244;22.530;2023-01-15T14:54:52;69.15;;;54.78;;
56997;SDS011;42890;44.244;22.530;2023-01-15T14:57:19;69.95;;;57.67;;
56997;SDS011;42890;44.244;22.530;2023-01-15T14:59:48;87.13;;;58.45;;
56997;SDS011;42890;44.244;22.530;2023-01-15T15:02:21;66.57;;;52.78;;
56997;SDS011;42890;44.244;22.530;2023-01-15T15:04:52;67.57;;;52.80;;
56997;SDS011;42890;44.244;22.530;2023-01-15T15:07:21;171.15;;;83.78;;
56997;SDS011;42890;44.244;22.530;2023-01-15T15:09:58;128.27;;;68.93;;
56997;SDS011;42890;44.244;22.530;2023-01-15T15:20:21;135.20;;;73.85;;
56997;SDS011;42890;44.244;22.530;2023-01-15T15:22:50;156.38;;;74.90;;
56997;SDS011;42890;44.244;22.530;2023-01-15T15:25:21;167.82;;;76.45;;
56997;SDS011;42890;44.244;22.530;2023-01-15T15:27:48;198.15;;;91.90;;
56997;SDS011;42890;44.244;22.530;2023-01-15T15:30:14;127.20;;;70.55;;
56997;SDS011;42890;44.244;22.530;2023-01-15T15:32:42;78.55;;;56.25;;
56997;SDS011;42890;44.244;22.530;2023-01-15T15:35:18;51.22;;;43.33;;
56997;SDS011;42890;44.244;22.530;2023-01-15T15:37:48;63.13;;;44.67;;
56997;SDS011;42890;44.244;22.530;2023-01-15T15:40:15;38.20;;;32.08;;
56997;SDS011;42890;44.244;22.530;2023-01-15T15:42:46;48.15;;;35.95;;
56997;SDS011;42890;44.244;22.530;2023-01-15T15:45:33;44.75;;;34.55;;
56997;SDS011;42890;44.244;22.530;2023-01-15T15:48:18;45.22;;;37.13;;
56997;SDS011;42890;44.244;22.530;2023-01-15T15:51:04;33.40;;;29.88;;
56997;SDS011;42890;44.244;22.530;2023-01-15T15:53:31;32.50;;;29.05;;
56997;SDS011;42890;44.244;22.530;2023-01-15T15:55:57;33.58;;;28.73;;
56997;SDS011;42890;44.244;22.530;2023-01-15T15:58:31;29.00;;;25.83;;
56997;SDS011;42890;44.244;22.530;2023-01-15T16:00:58;29.08;;;26.02;;
56997;SDS011;42890;44.244;22.530;2023-01-15T16:03:26;28.67;;;25.75;;